createdAt,value
2018-02-01T00:00:40.726Z,6.04
2018-02-01T00:01:41.345Z,6.03
2018-02-01T00:02:40.734Z,6.03
2018-02-01T00:03:40.472Z,6.02
2018-02-01T00:04:40.667Z,6.02
2018-02-01T00:05:40.691Z,6
2018-02-01T00:06:41.541Z,6.01
2018-02-01T00:07:40.648Z,6.03
2018-02-01T00:08:41.134Z,6.02
2018-02-01T00:09:40.470Z,5.97
2018-02-01T00:10:40.575Z,5.98
2018-02-01T00:11:41.035Z,5.97
2018-02-01T00:12:40.610Z,5.96
2018-02-01T00:13:40.513Z,5.96
2018-02-01T00:14:40.419Z,5.95
2018-02-01T00:15:40.613Z,5.89
2018-02-01T00:16:40.441Z,5.9
2018-02-01T00:17:40.267Z,5.89
2018-02-01T00:18:40.306Z,5.88
2018-02-01T00:19:40.414Z,5.89
2018-02-01T00:20:41.164Z,5.88
2018-02-01T00:21:40.643Z,5.9
2018-02-01T00:22:41.152Z,5.9
2018-02-01T00:23:40.385Z,5.86
2018-02-01T00:24:40.459Z,5.82
2018-02-01T00:25:40.843Z,5.81
2018-02-01T00:26:40.452Z,5.79
2018-02-01T00:27:40.411Z,5.76
2018-02-01T00:28:40.605Z,5.73
2018-02-01T00:29:40.323Z,5.71
2018-02-01T00:30:40.552Z,5.71
2018-02-01T00:31:40.419Z,5.67
2018-02-01T00:32:41.452Z,5.7
2018-02-01T00:33:40.450Z,5.65
2018-02-01T00:34:40.604Z,5.66
2018-02-01T00:35:40.993Z,5.67
2018-02-01T00:36:40.485Z,5.66
2018-02-01T00:37:41.506Z,5.67
2018-02-01T00:38:40.301Z,5.64
2018-02-01T00:39:40.723Z,5.61
2018-02-01T00:40:41.790Z,5.67
2018-02-01T00:41:41.023Z,5.65
2018-02-01T00:42:42.299Z,5.64
2018-02-01T00:43:40.556Z,5.64
2018-02-01T00:44:42.979Z,5.61
2018-02-01T00:45:41.723Z,5.62
2018-02-01T00:46:40.646Z,5.61
2018-02-01T00:47:40.769Z,5.64
2018-02-01T00:48:41.701Z,5.66
2018-02-01T00:49:41.385Z,5.66
2018-02-01T00:50:40.939Z,5.64
2018-02-01T00:51:41.008Z,5.58
2018-02-01T00:52:40.903Z,5.58
2018-02-01T00:53:41.343Z,5.62
2018-02-01T00:54:40.734Z,5.64
2018-02-01T00:55:40.790Z,5.6
2018-02-01T00:56:40.807Z,5.62
2018-02-01T00:57:41.695Z,5.61
2018-02-01T00:58:40.668Z,5.64
2018-02-01T00:59:40.902Z,5.61
2018-02-01T01:00:40.826Z,5.64
2018-02-01T01:01:40.853Z,5.62
2018-02-01T01:02:40.506Z,5.65
2018-02-01T01:03:41.053Z,5.64
2018-02-01T01:04:40.765Z,5.66
2018-02-01T01:05:41.809Z,5.65
2018-02-01T01:06:41.381Z,5.66
2018-02-01T01:07:40.624Z,5.7
2018-02-01T01:08:40.529Z,5.66
2018-02-01T01:09:40.628Z,5.64
2018-02-01T01:10:42.723Z,5.64
2018-02-01T01:11:41.643Z,5.63
2018-02-01T01:12:41.480Z,5.64
2018-02-01T01:13:40.748Z,5.64
2018-02-01T01:14:42.599Z,5.63
2018-02-01T01:15:41.452Z,5.59
2018-02-01T01:16:40.839Z,5.59
2018-02-01T01:17:41.903Z,5.6
2018-02-01T01:18:41.390Z,5.56
2018-02-01T01:19:41.190Z,5.58
2018-02-01T01:20:40.952Z,5.59
2018-02-01T01:21:40.994Z,5.6
2018-02-01T01:22:40.717Z,5.6
2018-02-01T01:23:41.455Z,5.6
2018-02-01T01:24:41.512Z,5.6
2018-02-01T01:25:41.428Z,5.6
2018-02-01T01:26:41.358Z,5.58
2018-02-01T01:27:42.209Z,5.59
2018-02-01T01:28:40.509Z,5.54
2018-02-01T01:29:40.752Z,5.53
2018-02-01T01:30:40.771Z,5.52
2018-02-01T01:31:41.563Z,5.52
2018-02-01T01:32:41.642Z,5.5
2018-02-01T01:33:40.829Z,5.51
2018-02-01T01:34:41.449Z,5.51
2018-02-01T01:35:41.898Z,5.53
2018-02-01T01:36:41.087Z,5.53
2018-02-01T01:37:40.688Z,5.54
2018-02-01T01:38:40.896Z,5.54
2018-02-01T01:39:41.586Z,5.54
2018-02-01T01:40:40.828Z,5.53
2018-02-01T01:41:41.109Z,5.47
2018-02-01T01:42:40.982Z,5.46
2018-02-01T01:43:41.000Z,5.43
2018-02-01T01:44:41.256Z,5.46
2018-02-01T01:45:40.897Z,5.46
2018-02-01T01:46:40.679Z,5.44
2018-02-01T01:47:41.401Z,5.47
2018-02-01T01:48:40.677Z,5.45
2018-02-01T01:49:40.827Z,5.45
2018-02-01T01:50:40.749Z,5.45
2018-02-01T01:51:40.974Z,5.45
2018-02-01T01:52:41.149Z,5.45
2018-02-01T01:53:41.068Z,5.43
2018-02-01T01:54:41.001Z,5.39
2018-02-01T01:55:40.685Z,5.36
2018-02-01T01:56:43.519Z,5.35
2018-02-01T01:57:40.789Z,5.36
2018-02-01T01:58:41.459Z,5.37
2018-02-01T01:59:40.960Z,5.39
2018-02-01T02:00:41.948Z,5.33
2018-02-01T02:01:42.300Z,5.37
2018-02-01T02:02:41.312Z,5.34
2018-02-01T02:03:40.508Z,5.35
2018-02-01T02:04:40.669Z,5.37
2018-02-01T02:05:40.971Z,5.37
2018-02-01T02:06:40.876Z,5.36
2018-02-01T02:07:41.416Z,5.34
2018-02-01T02:08:40.933Z,5.35
2018-02-01T02:09:41.350Z,5.38
2018-02-01T02:10:40.821Z,5.35
2018-02-01T02:11:41.219Z,5.36
2018-02-01T02:12:41.955Z,5.37
2018-02-01T02:13:42.689Z,5.37
2018-02-01T02:14:43.488Z,5.36
2018-02-01T02:15:40.912Z,5.3
2018-02-01T02:16:41.430Z,5.33
2018-02-01T02:17:40.807Z,5.32
2018-02-01T02:18:42.137Z,5.32
2018-02-01T02:19:42.027Z,5.31
2018-02-01T02:20:41.298Z,5.26
2018-02-01T02:21:42.879Z,5.25
2018-02-01T02:22:40.986Z,5.28
2018-02-01T02:23:41.053Z,5.28
2018-02-01T02:24:41.623Z,5.33
2018-02-01T02:25:40.819Z,5.3
2018-02-01T02:26:40.735Z,5.31
2018-02-01T02:27:41.496Z,5.33
2018-02-01T02:28:41.108Z,5.35
2018-02-01T02:29:40.976Z,5.33
2018-02-01T02:30:41.511Z,5.34
2018-02-01T02:31:41.719Z,5.33
2018-02-01T02:32:40.744Z,5.33
2018-02-01T02:33:41.263Z,5.32
2018-02-01T02:34:41.068Z,5.31
2018-02-01T02:35:40.547Z,5.31
2018-02-01T02:36:41.926Z,5.31
2018-02-01T02:37:41.180Z,5.28
2018-02-01T02:38:43.390Z,5.28
2018-02-01T02:39:41.168Z,5.28
2018-02-01T02:40:40.989Z,5.2
2018-02-01T02:41:41.218Z,5.18
2018-02-01T02:42:42.133Z,5.18
2018-02-01T02:43:40.695Z,5.17
2018-02-01T02:44:40.830Z,5.18
2018-02-01T02:45:40.953Z,5.21
2018-02-01T02:46:40.965Z,5.17
2018-02-01T02:47:41.203Z,5.15
2018-02-01T02:51:18.273Z,5.17
2018-02-01T02:51:41.347Z,5.15
2018-02-01T02:52:41.984Z,5.11
2018-02-01T02:53:40.796Z,5.11
2018-02-01T02:54:41.142Z,5.14
2018-02-01T02:55:42.268Z,5.15
2018-02-01T02:56:40.909Z,5.13
2018-02-01T02:57:41.082Z,5.14
2018-02-01T02:58:40.944Z,5.1
2018-02-01T02:59:40.778Z,5.1
2018-02-01T03:00:41.071Z,5.1
2018-02-01T03:01:41.303Z,5.1
2018-02-01T03:02:40.954Z,5.08
2018-02-01T03:03:41.023Z,5.1
2018-02-01T03:04:40.834Z,5.1
2018-02-01T03:05:41.626Z,5.13
2018-02-01T03:06:41.069Z,5.12
2018-02-01T03:07:40.941Z,5.15
2018-02-01T03:08:40.904Z,5.11
2018-02-01T03:09:41.449Z,5.11
2018-02-01T03:10:42.039Z,5.11
2018-02-01T03:11:41.025Z,5.13
2018-02-01T03:12:41.287Z,5.11
2018-02-01T03:13:40.975Z,5.15
2018-02-01T03:14:41.363Z,5.16
2018-02-01T03:15:41.285Z,5.11
2018-02-01T03:16:41.460Z,5.15
2018-02-01T03:17:41.604Z,5.12
2018-02-01T03:18:42.415Z,5.13
2018-02-01T03:19:41.094Z,5.1
2018-02-01T03:20:41.161Z,5.08
2018-02-01T03:21:41.234Z,5.04
2018-02-01T03:22:41.122Z,5.06
2018-02-01T03:23:41.220Z,5.06
2018-02-01T03:24:42.053Z,5.05
2018-02-01T03:25:42.157Z,5.03
2018-02-01T03:26:40.701Z,5.02
2018-02-01T03:27:41.726Z,5.02
2018-02-01T03:28:41.109Z,4.98
2018-02-01T03:29:41.163Z,4.96
2018-02-01T03:30:42.017Z,4.97
2018-02-01T03:31:41.359Z,4.98
2018-02-01T03:32:41.038Z,4.98
2018-02-01T03:33:41.270Z,4.96
2018-02-01T03:34:41.876Z,4.97
2018-02-01T03:35:41.305Z,4.98
2018-02-01T03:36:41.178Z,4.99
2018-02-01T03:37:41.300Z,4.98
2018-02-01T03:38:41.132Z,4.97
2018-02-01T03:39:43.453Z,4.98
2018-02-01T03:40:40.976Z,4.99
2018-02-01T03:41:40.932Z,5
2018-02-01T03:42:41.794Z,5.04
2018-02-01T03:43:42.318Z,5.03
2018-02-01T03:44:40.993Z,5.04
2018-02-01T03:45:40.658Z,4.99
2018-02-01T03:46:40.881Z,5.02
2018-02-01T03:47:41.059Z,5.03
2018-02-01T03:48:41.139Z,5.02
2018-02-01T03:49:41.731Z,5.04
2018-02-01T03:50:40.896Z,5.02
2018-02-01T03:51:41.154Z,5.01
2018-02-01T03:52:41.229Z,5.04
2018-02-01T03:55:42.102Z,5.09
2018-02-01T03:56:41.205Z,5.06
2018-02-01T03:57:41.047Z,5.08
2018-02-01T03:58:41.722Z,5.08
2018-02-01T03:59:41.235Z,5.09
2018-02-01T04:00:41.606Z,5.1
2018-02-01T04:01:41.700Z,5.11
2018-02-01T04:02:41.204Z,5.13
2018-02-01T04:03:43.160Z,5.12
2018-02-01T04:04:43.074Z,5.14
2018-02-01T04:05:41.464Z,5.15
2018-02-01T04:06:41.837Z,5.14
2018-02-01T04:07:41.389Z,5.12
2018-02-01T04:08:42.487Z,5.12
2018-02-01T04:09:41.549Z,5.1
2018-02-01T04:10:42.908Z,5.11
2018-02-01T04:11:41.984Z,5.11
2018-02-01T04:12:42.105Z,5.09
2018-02-01T04:13:40.858Z,5.13
2018-02-01T04:14:41.653Z,5.1
2018-02-01T04:15:41.592Z,5.13
2018-02-01T04:16:41.134Z,5.14
2018-02-01T04:17:41.220Z,5.15
2018-02-01T04:18:41.933Z,5.14
2018-02-01T04:19:42.534Z,5.15
2018-02-01T04:20:42.931Z,5.15
2018-02-01T04:21:41.589Z,5.15
2018-02-01T04:22:41.219Z,5.16
2018-02-01T04:23:42.883Z,5.15
2018-02-01T04:24:41.041Z,5.15
2018-02-01T04:25:41.680Z,5.14
2018-02-01T04:26:41.256Z,5.12
2018-02-01T04:27:41.841Z,5.15
2018-02-01T04:28:43.163Z,5.16
2018-02-01T04:29:42.876Z,5.13
2018-02-01T04:30:41.878Z,5.15
2018-02-01T04:31:41.380Z,5.15
2018-02-01T04:32:42.238Z,5.15
2018-02-01T04:33:42.277Z,5.14
2018-02-01T04:34:41.620Z,5.16
2018-02-01T04:35:42.261Z,5.15
2018-02-01T04:36:41.716Z,5.13
2018-02-01T04:37:42.787Z,5.12
2018-02-01T04:38:42.020Z,5.11
2018-02-01T04:39:41.108Z,5.15
2018-02-01T04:40:41.297Z,5.15
2018-02-01T04:41:41.552Z,5.15
2018-02-01T04:42:40.815Z,5.16
2018-02-01T04:43:40.737Z,5.16
2018-02-01T04:44:42.301Z,5.16
2018-02-01T04:45:42.004Z,5.16
2018-02-01T04:46:42.216Z,5.16
2018-02-01T04:47:41.824Z,5.16
2018-02-01T04:48:41.387Z,5.16
2018-02-01T04:52:12.636Z,5.17
2018-02-01T04:52:41.884Z,5.18
2018-02-01T04:53:40.211Z,5.16
2018-02-01T04:54:40.575Z,5.17
2018-02-01T04:55:41.044Z,5.15
2018-02-01T04:56:40.607Z,5.08
2018-02-01T04:57:40.762Z,5.07
2018-02-01T04:58:42.429Z,5.07
2018-02-01T04:59:40.326Z,5.09
2018-02-01T05:00:42.187Z,5.09
2018-02-01T05:01:40.085Z,5.1
2018-02-01T05:02:40.492Z,5.09
2018-02-01T05:03:40.460Z,5.09
2018-02-01T05:04:40.814Z,5.09
2018-02-01T05:05:41.753Z,5.06
2018-02-01T05:06:40.220Z,5.05
2018-02-01T05:07:40.505Z,5.08
2018-02-01T05:08:40.956Z,5.07
2018-02-01T05:09:42.080Z,5.05
2018-02-01T05:10:40.469Z,5.07
2018-02-01T05:11:40.694Z,5.07
2018-02-01T05:12:40.818Z,5.07
2018-02-01T05:13:41.332Z,5.08
2018-02-01T05:14:42.932Z,5.09
2018-02-01T05:15:40.959Z,5.09
2018-02-01T05:16:42.400Z,5.09
2018-02-01T05:17:41.557Z,5.09
2018-02-01T05:18:40.308Z,5.1
2018-02-01T05:19:40.161Z,5.1
2018-02-01T05:20:41.009Z,5.09
2018-02-01T05:21:40.371Z,5.11
2018-02-01T05:22:41.235Z,5.11
2018-02-01T05:23:41.091Z,5.1
2018-02-01T05:24:41.258Z,5.1
2018-02-01T05:25:40.989Z,5.1
2018-02-01T05:26:40.532Z,5.11
2018-02-01T05:27:41.226Z,5.1
2018-02-01T05:28:41.557Z,5.11
2018-02-01T05:29:41.006Z,5.09
2018-02-01T05:30:41.042Z,5.12
2018-02-01T05:31:41.313Z,5.09
2018-02-01T05:32:41.413Z,5.11
2018-02-01T05:33:40.497Z,5.07
2018-02-01T05:34:40.404Z,5.05
2018-02-01T05:35:42.417Z,5.08
2018-02-01T05:36:41.695Z,5.09
2018-02-01T05:37:40.220Z,5.08
2018-02-01T05:38:40.685Z,5.09
2018-02-01T05:39:41.360Z,5.09
2018-02-01T05:40:41.572Z,5.1
2018-02-01T05:42:11.218Z,5.11
2018-02-01T05:42:39.987Z,5.08
2018-02-01T05:43:41.887Z,5.09
2018-02-01T05:44:40.564Z,5.1
2018-02-01T05:45:40.887Z,5.1
2018-02-01T05:46:41.022Z,5.13
2018-02-01T05:47:40.461Z,5.1
2018-02-01T05:48:41.785Z,5.13
2018-02-01T05:49:41.052Z,5.13
2018-02-01T05:50:41.386Z,5.15
2018-02-01T05:51:42.041Z,5.14
2018-02-01T05:52:40.638Z,5.12
2018-02-01T05:53:40.690Z,5.13
2018-02-01T05:54:42.168Z,5.13
2018-02-01T05:55:42.866Z,5.15
2018-02-01T05:56:41.445Z,5.13
2018-02-01T05:57:43.067Z,5.14
2018-02-01T05:58:41.055Z,5.11
2018-02-01T05:59:40.968Z,5.14
2018-02-01T06:00:41.353Z,5.14
2018-02-01T06:01:41.438Z,5.15
2018-02-01T06:02:41.135Z,5.15
2018-02-01T06:03:41.552Z,5.14
2018-02-01T06:04:42.707Z,5.12
2018-02-01T06:05:41.693Z,5.14
2018-02-01T06:06:41.139Z,5.15
2018-02-01T06:07:41.544Z,5.13
2018-02-01T06:08:41.196Z,5.13
2018-02-01T06:09:42.537Z,5.11
2018-02-01T06:10:40.706Z,5.12
2018-02-01T06:11:42.640Z,5.13
2018-02-01T06:12:40.784Z,5.1
2018-02-01T06:13:40.485Z,5.1
2018-02-01T06:14:40.556Z,5.11
2018-02-01T06:15:40.872Z,5.09
2018-02-01T06:16:40.651Z,5.09
2018-02-01T06:17:40.256Z,5.09
2018-02-01T06:18:41.483Z,5.08
2018-02-01T06:19:41.137Z,5.08
2018-02-01T06:20:41.073Z,5.06
2018-02-01T06:21:41.190Z,5.08
2018-02-01T06:22:40.663Z,5.08
2018-02-01T06:23:40.992Z,5.09
2018-02-01T06:24:42.230Z,5.09
2018-02-01T06:25:41.453Z,5.09
2018-02-01T06:26:40.810Z,5.08
2018-02-01T06:27:40.962Z,5.08
2018-02-01T06:28:40.924Z,5.09
2018-02-01T06:29:41.104Z,5.06
2018-02-01T06:30:40.165Z,5.06
2018-02-01T06:31:41.294Z,5.04
2018-02-01T06:32:41.283Z,5.01
2018-02-01T06:33:40.505Z,5
2018-02-01T06:34:40.520Z,5.02
2018-02-01T06:35:40.414Z,4.99
2018-02-01T06:36:40.295Z,5.01
2018-02-01T06:37:40.385Z,4.99
2018-02-01T06:38:40.397Z,4.97
2018-02-01T06:39:40.790Z,4.99
2018-02-01T06:40:40.575Z,4.98
2018-02-01T06:41:40.630Z,5.02
2018-02-01T06:42:40.419Z,4.99
2018-02-01T06:43:40.175Z,5.02
2018-02-01T06:44:40.364Z,5.02
2018-02-01T06:45:40.894Z,5.02
2018-02-01T06:46:41.259Z,5.02
2018-02-01T06:47:40.907Z,5.03
2018-02-01T06:48:40.126Z,5.04
2018-02-01T06:49:40.286Z,5.04
2018-02-01T06:50:40.293Z,5.07
2018-02-01T06:51:40.390Z,5.04
2018-02-01T06:52:40.521Z,5.05
2018-02-01T06:53:40.618Z,5.04
2018-02-01T06:54:40.308Z,5.06
2018-02-01T06:55:40.464Z,5.03
2018-02-01T06:56:40.409Z,5.02
2018-02-01T06:57:40.496Z,4.99
2018-02-01T06:58:40.237Z,5.02
2018-02-01T06:59:40.559Z,5.03
2018-02-01T07:00:40.724Z,5.03
2018-02-01T07:01:40.568Z,5.01
2018-02-01T07:02:40.358Z,5.01
2018-02-01T07:03:40.387Z,4.99
2018-02-01T07:04:40.846Z,4.96
2018-02-01T07:05:40.474Z,4.95
2018-02-01T07:06:40.403Z,4.91
2018-02-01T07:07:40.431Z,4.9
2018-02-01T07:08:40.471Z,4.91
2018-02-01T07:09:40.651Z,4.92
2018-02-01T07:10:40.645Z,4.89
2018-02-01T07:11:40.811Z,4.9
2018-02-01T07:12:40.300Z,4.85
2018-02-01T07:13:40.592Z,4.89
2018-02-01T07:14:40.431Z,4.89
2018-02-01T07:15:40.438Z,4.89
2018-02-01T07:16:40.608Z,4.85
2018-02-01T07:17:40.931Z,4.83
2018-02-01T07:18:40.527Z,4.83
2018-02-01T07:19:40.648Z,4.84
2018-02-01T07:20:40.534Z,4.81
2018-02-01T07:21:40.609Z,4.83
2018-02-01T07:22:40.661Z,4.83
2018-02-01T07:23:40.539Z,4.81
2018-02-01T07:24:40.743Z,4.76
2018-02-01T07:25:40.630Z,4.76
2018-02-01T07:26:40.570Z,4.74
2018-02-01T07:27:40.667Z,4.7
2018-02-01T07:28:40.342Z,4.7
2018-02-01T07:29:40.481Z,4.71
2018-02-01T07:30:40.636Z,4.72
2018-02-01T07:31:40.617Z,4.71
2018-02-01T07:32:40.346Z,4.72
2018-02-01T07:33:40.578Z,4.73
2018-02-01T07:34:40.539Z,4.74
2018-02-01T07:35:40.393Z,4.72
2018-02-01T07:36:40.400Z,4.72
2018-02-01T07:37:40.679Z,4.72
2018-02-01T07:38:40.550Z,4.7
2018-02-01T07:39:40.656Z,4.69
2018-02-01T07:40:40.638Z,4.72
2018-02-01T07:41:40.406Z,4.72
2018-02-01T07:42:40.360Z,4.72
2018-02-01T07:43:40.353Z,4.71
2018-02-01T07:44:40.485Z,4.7
2018-02-01T07:45:40.646Z,4.68
2018-02-01T07:46:40.337Z,4.66
2018-02-01T07:47:40.919Z,4.67
2018-02-01T07:48:40.659Z,4.71
2018-02-01T07:49:40.525Z,4.71
2018-02-01T07:50:40.670Z,4.73
2018-02-01T07:51:40.503Z,4.73
2018-02-01T07:52:41.874Z,4.72
2018-02-01T07:53:40.847Z,4.73
2018-02-01T07:54:40.738Z,4.72
2018-02-01T07:55:40.860Z,4.73
2018-02-01T07:56:40.768Z,4.75
2018-02-01T07:57:40.512Z,4.73
2018-02-01T07:58:40.483Z,4.7
2018-02-01T07:59:40.525Z,4.71
2018-02-01T08:00:40.496Z,4.74
2018-02-01T08:01:40.619Z,4.71
2018-02-01T08:02:40.498Z,4.72
2018-02-01T08:03:41.732Z,4.76
2018-02-01T08:04:40.789Z,4.77
2018-02-01T08:05:40.536Z,4.78
2018-02-01T08:06:40.719Z,4.77
2018-02-01T08:07:40.674Z,4.78
2018-02-01T08:08:41.586Z,4.78
2018-02-01T08:09:40.430Z,4.79
2018-02-01T08:10:40.472Z,4.79
2018-02-01T08:11:40.626Z,4.8
2018-02-01T08:12:40.705Z,4.78
2018-02-01T08:13:40.506Z,4.71
2018-02-01T08:14:40.566Z,4.68
2018-02-01T08:15:40.643Z,4.63
2018-02-01T08:16:40.766Z,4.64
2018-02-01T08:17:41.271Z,4.64
2018-02-01T08:18:40.608Z,4.66
2018-02-01T08:19:40.524Z,4.66
2018-02-01T08:20:40.506Z,4.65
2018-02-01T08:21:40.603Z,4.66
2018-02-01T08:22:40.611Z,4.67
2018-02-01T08:23:40.782Z,4.63
2018-02-01T08:24:40.816Z,4.62
2018-02-01T08:25:40.655Z,4.62
2018-02-01T08:26:40.843Z,4.62
2018-02-01T08:27:40.441Z,4.64
2018-02-01T08:28:40.579Z,4.61
2018-02-01T08:29:40.516Z,4.61
2018-02-01T08:30:40.858Z,4.55
2018-02-01T08:31:40.708Z,4.57
2018-02-01T08:32:40.681Z,4.54
2018-02-01T08:33:40.926Z,4.58
2018-02-01T08:34:40.547Z,4.57
2018-02-01T08:35:40.600Z,4.57
2018-02-01T08:36:40.701Z,4.59
2018-02-01T08:37:41.303Z,4.59
2018-02-01T08:38:41.008Z,4.61
2018-02-01T08:39:40.765Z,4.6
2018-02-01T08:40:40.483Z,4.6
2018-02-01T08:41:40.571Z,4.62
2018-02-01T08:42:40.454Z,4.61
2018-02-01T08:43:41.177Z,4.6
2018-02-01T08:44:40.687Z,4.6
2018-02-01T08:45:40.822Z,4.59
2018-02-01T08:46:40.689Z,4.59
2018-02-01T08:47:40.747Z,4.6
2018-02-01T08:48:40.630Z,4.6
2018-02-01T08:49:40.668Z,4.62
2018-02-01T08:50:40.705Z,4.6
2018-02-01T08:51:40.854Z,4.6
2018-02-01T08:52:41.401Z,4.6
2018-02-01T08:53:41.075Z,4.53
2018-02-01T08:54:41.249Z,4.54
2018-02-01T08:55:41.269Z,4.54
2018-02-01T08:56:41.554Z,4.56
2018-02-01T08:57:40.978Z,4.55
2018-02-01T08:58:41.330Z,4.53
2018-02-01T08:59:41.216Z,4.52
2018-02-01T09:00:42.151Z,4.53
2018-02-01T09:01:41.042Z,4.54
2018-02-01T09:02:41.280Z,4.54
2018-02-01T09:03:41.221Z,4.54
2018-02-01T09:04:41.795Z,4.54
2018-02-01T09:05:40.736Z,4.53
2018-02-01T09:06:41.269Z,4.52
2018-02-01T09:07:40.983Z,4.52
2018-02-01T09:08:41.389Z,4.55
2018-02-01T09:09:41.006Z,4.53
2018-02-01T09:10:41.217Z,4.5
2018-02-01T09:11:41.044Z,4.46
2018-02-01T09:12:41.028Z,4.48
2018-02-01T09:13:40.964Z,4.5
2018-02-01T09:14:41.371Z,4.45
2018-02-01T09:15:40.857Z,4.45
2018-02-01T09:16:41.060Z,4.39
2018-02-01T09:17:41.935Z,4.34
2018-02-01T09:18:41.081Z,4.36
2018-02-01T09:19:40.895Z,4.39
2018-02-01T09:20:40.861Z,4.39
2018-02-01T09:21:40.815Z,4.38
2018-02-01T09:22:42.417Z,4.36
2018-02-01T09:23:40.191Z,4.37
2018-02-01T09:24:39.866Z,4.31
2018-02-01T09:25:40.264Z,4.28
2018-02-01T09:26:40.063Z,4.31
2018-02-01T09:27:40.286Z,4.31
2018-02-01T09:28:40.314Z,4.35
2018-02-01T09:29:40.139Z,4.36
2018-02-01T09:30:40.084Z,4.35
2018-02-01T09:31:39.961Z,4.34
2018-02-01T09:32:40.206Z,4.35
2018-02-01T09:33:40.051Z,4.35
2018-02-01T09:34:40.207Z,4.36
2018-02-01T09:35:40.298Z,4.39
2018-02-01T09:36:40.296Z,4.3
2018-02-01T09:37:40.255Z,4.34
2018-02-01T09:38:41.341Z,4.36
2018-02-01T09:39:40.379Z,4.34
2018-02-01T09:40:40.143Z,4.29
2018-02-01T09:41:41.043Z,4.32
2018-02-01T09:42:40.149Z,4.28
2018-02-01T09:43:40.985Z,4.27
2018-02-01T09:44:40.375Z,4.2
2018-02-01T09:45:39.903Z,4.22
2018-02-01T09:46:40.204Z,4.25
2018-02-01T09:47:39.948Z,4.24
2018-02-01T09:48:40.172Z,4.23
2018-02-01T09:49:40.205Z,4.25
2018-02-01T09:50:40.287Z,4.28
2018-02-01T09:51:40.233Z,4.29
2018-02-01T09:52:40.024Z,4.33
2018-02-01T09:53:40.473Z,4.3
2018-02-01T09:54:40.275Z,4.33
2018-02-01T09:55:40.373Z,4.36
2018-02-01T09:56:40.390Z,4.37
2018-02-01T09:57:40.111Z,4.4
2018-02-01T09:58:40.187Z,4.4
2018-02-01T09:59:40.276Z,4.42
2018-02-01T10:00:40.282Z,4.41
2018-02-01T10:01:40.413Z,4.41
2018-02-01T10:02:40.159Z,4.42
2018-02-01T10:03:40.376Z,4.42
2018-02-01T10:04:40.382Z,4.44
2018-02-01T10:05:40.374Z,4.45
2018-02-01T10:06:40.228Z,4.46
2018-02-01T10:07:40.314Z,4.42
2018-02-01T10:08:40.462Z,4.42
2018-02-01T10:09:40.431Z,4.46
2018-02-01T10:10:40.352Z,4.46
2018-02-01T10:11:40.123Z,4.46
2018-02-01T10:12:40.362Z,4.46
2018-02-01T10:13:40.563Z,4.49
2018-02-01T10:14:40.379Z,4.54
2018-02-01T10:15:40.385Z,4.59
2018-02-01T10:16:40.030Z,4.62
2018-02-01T10:17:40.386Z,4.66
2018-02-01T10:18:40.034Z,4.66
2018-02-01T10:19:40.163Z,4.7
2018-02-01T10:20:40.304Z,4.71
2018-02-01T10:21:40.093Z,4.73
2018-02-01T10:22:40.094Z,4.71
2018-02-01T10:23:40.486Z,4.75
2018-02-01T10:24:43.744Z,4.77
2018-02-01T10:25:40.461Z,4.77
2018-02-01T10:26:40.216Z,4.83
2018-02-01T10:27:40.428Z,4.85
2018-02-01T10:28:40.219Z,4.91
2018-02-01T10:29:40.350Z,4.91
2018-02-01T10:30:40.243Z,4.94
2018-02-01T10:31:41.389Z,4.97
2018-02-01T10:32:40.301Z,5.03
2018-02-01T10:33:40.202Z,5.06
2018-02-01T10:34:40.401Z,5.1
2018-02-01T10:35:40.797Z,5.11
2018-02-01T10:36:40.539Z,5.18
2018-02-01T10:37:40.168Z,5.21
2018-02-01T10:38:40.127Z,5.26
2018-02-01T10:39:40.449Z,5.32
2018-02-01T10:40:40.579Z,5.38
2018-02-01T10:41:40.328Z,5.39
2018-02-01T10:42:40.679Z,5.38
2018-02-01T10:43:40.227Z,5.42
2018-02-01T10:44:40.620Z,5.44
2018-02-01T10:45:40.526Z,5.5
2018-02-01T10:46:39.981Z,5.53
2018-02-01T10:47:40.458Z,5.62
2018-02-01T10:48:40.542Z,5.61
2018-02-01T10:49:40.230Z,5.61
2018-02-01T10:50:40.259Z,5.61
2018-02-01T10:51:40.361Z,5.63
2018-02-01T10:52:40.301Z,5.61
2018-02-01T10:53:40.083Z,5.65
2018-02-01T10:54:40.367Z,5.65
2018-02-01T10:55:40.285Z,5.64
2018-02-01T10:56:40.187Z,5.58
2018-02-01T10:57:40.595Z,5.54
2018-02-01T10:58:40.552Z,5.59
2018-02-01T10:59:40.619Z,5.58
2018-02-01T11:00:40.569Z,5.64
2018-02-01T11:01:40.581Z,5.71
2018-02-01T11:02:40.196Z,5.76
2018-02-01T11:03:40.208Z,5.77
2018-02-01T11:04:40.360Z,5.84
2018-02-01T11:05:40.143Z,5.94
2018-02-01T11:06:40.584Z,5.97
2018-02-01T11:07:40.754Z,6.02
2018-02-01T11:08:40.459Z,6.08
2018-02-01T11:09:40.558Z,6.05
2018-02-01T11:10:40.565Z,6.06
2018-02-01T11:11:40.312Z,6
2018-02-01T11:12:40.830Z,5.93
2018-02-01T11:13:40.425Z,5.99
2018-02-01T11:14:40.384Z,6.02
2018-02-01T11:15:40.419Z,6.09
2018-02-01T11:16:40.476Z,6.17
2018-02-01T11:17:40.441Z,6.26
2018-02-01T11:18:40.372Z,6.29
2018-02-01T11:19:40.117Z,6.33
2018-02-01T11:20:40.554Z,6.27
2018-02-01T11:21:40.242Z,6.31
2018-02-01T11:22:40.445Z,6.33
2018-02-01T11:23:40.750Z,6.37
2018-02-01T11:24:40.621Z,6.38
2018-02-01T11:25:40.220Z,6.45
2018-02-01T11:26:40.309Z,6.45
2018-02-01T11:27:40.479Z,6.51
2018-02-01T11:28:40.238Z,6.38
2018-02-01T11:29:40.507Z,6.46
2018-02-01T11:30:40.417Z,6.51
2018-02-01T11:31:40.604Z,6.48
2018-02-01T11:32:40.163Z,6.5
2018-02-01T11:33:40.264Z,6.5
2018-02-01T11:34:40.708Z,6.52
2018-02-01T11:35:40.442Z,6.6
2018-02-01T11:36:40.881Z,6.62
2018-02-01T11:37:40.337Z,6.66
2018-02-01T11:38:40.477Z,6.56
2018-02-01T11:39:40.164Z,6.49
2018-02-01T11:40:40.822Z,6.54
2018-02-01T11:41:40.689Z,6.54
2018-02-01T11:42:40.491Z,6.47
2018-02-01T11:43:40.325Z,6.51
2018-02-01T11:44:40.236Z,6.43
2018-02-01T11:45:40.589Z,6.38
2018-02-01T11:46:40.641Z,6.35
2018-02-01T11:47:40.501Z,6.25
2018-02-01T11:48:40.383Z,6.22
2018-02-01T11:49:40.551Z,6.25
2018-02-01T11:50:40.525Z,6.22
2018-02-01T11:51:40.192Z,6.04
2018-02-01T11:52:40.563Z,6.06
2018-02-01T11:53:40.379Z,6.01
2018-02-01T11:54:41.843Z,5.93
2018-02-01T11:55:40.377Z,5.96
2018-02-01T11:56:40.733Z,5.96
2018-02-01T11:57:40.396Z,5.98
2018-02-01T11:58:40.633Z,5.98
2018-02-01T11:59:41.370Z,5.95
2018-02-01T12:00:40.672Z,5.94
2018-02-01T12:01:40.627Z,5.95
2018-02-01T12:02:41.258Z,5.95
2018-02-01T12:03:40.496Z,6.01
2018-02-01T12:04:40.657Z,6.04
2018-02-01T12:05:40.352Z,6.03
2018-02-01T12:06:40.782Z,6.02
2018-02-01T12:07:42.134Z,6.08
2018-02-01T12:08:40.204Z,6.08
2018-02-01T12:09:40.174Z,6.07
2018-02-01T12:10:40.223Z,6.07
2018-02-01T12:11:40.326Z,6.07
2018-02-01T12:12:40.307Z,6.04
2018-02-01T12:13:41.680Z,6.03
2018-02-01T12:14:40.257Z,6.04
2018-02-01T12:15:40.192Z,5.98
2018-02-01T12:16:40.395Z,5.94
2018-02-01T12:17:40.354Z,5.88
2018-02-01T12:18:41.268Z,5.88
2018-02-01T12:19:40.596Z,5.87
2018-02-01T12:20:40.544Z,5.86
2018-02-01T12:21:40.478Z,5.9
2018-02-01T12:22:40.261Z,5.91
2018-02-01T12:23:42.865Z,5.94
2018-02-01T12:24:40.040Z,5.93
2018-02-01T12:25:39.946Z,5.88
2018-02-01T12:26:39.973Z,5.84
2018-02-01T12:27:40.073Z,5.83
2018-02-01T12:28:40.556Z,5.83
2018-02-01T12:29:40.073Z,5.84
2018-02-01T12:30:40.181Z,5.89
2018-02-01T12:31:40.214Z,5.91
2018-02-01T12:32:40.150Z,5.88
2018-02-01T12:33:40.315Z,5.87
2018-02-01T12:34:40.141Z,5.88
2018-02-01T12:35:41.288Z,5.88
2018-02-01T12:36:40.353Z,5.84
2018-02-01T12:37:40.451Z,5.85
2018-02-01T12:38:40.419Z,5.84
2018-02-01T12:39:40.498Z,5.82
2018-02-01T12:40:40.326Z,5.77
2018-02-01T12:41:40.568Z,5.77
2018-02-01T12:42:40.314Z,5.79
2018-02-01T12:43:40.205Z,5.78
2018-02-01T12:44:40.463Z,5.76
2018-02-01T12:45:40.568Z,5.77
2018-02-01T12:46:41.083Z,5.73
2018-02-01T12:47:40.311Z,5.74
2018-02-01T12:48:40.155Z,5.75
2018-02-01T12:49:40.437Z,5.73
2018-02-01T12:50:40.539Z,5.76
2018-02-01T12:51:40.395Z,5.78
2018-02-01T12:52:40.467Z,5.79
2018-02-01T12:53:40.482Z,5.83
2018-02-01T12:54:40.519Z,5.84
2018-02-01T12:55:40.638Z,5.88
2018-02-01T12:56:40.649Z,5.91
2018-02-01T12:57:40.746Z,5.89
2018-02-01T12:58:40.581Z,5.87
2018-02-01T12:59:40.482Z,5.87
2018-02-01T13:00:40.556Z,5.9
2018-02-01T13:01:40.612Z,5.91
2018-02-01T13:02:40.695Z,5.94
2018-02-01T13:03:40.682Z,5.97
2018-02-01T13:04:41.850Z,5.97
2018-02-01T13:05:40.653Z,6.02
2018-02-01T13:06:41.480Z,6.05
2018-02-01T13:07:40.721Z,6.03
2018-02-01T13:08:40.396Z,6
2018-02-01T13:09:40.788Z,6
2018-02-01T13:10:40.469Z,6.02
2018-02-01T13:11:41.185Z,6.06
2018-02-01T13:12:40.547Z,6.08
2018-02-01T13:13:42.325Z,6.13
2018-02-01T13:14:40.979Z,6.09
2018-02-01T13:15:41.517Z,6.09
2018-02-01T13:16:40.462Z,6.1
2018-02-01T13:17:41.094Z,6.08
2018-02-01T13:18:40.369Z,6.03
2018-02-01T13:19:40.678Z,6.01
2018-02-01T13:20:40.989Z,5.96
2018-02-01T13:21:40.287Z,5.96
2018-02-01T13:22:40.688Z,5.96
2018-02-01T13:23:40.603Z,5.95
2018-02-01T13:24:41.188Z,5.99
2018-02-01T13:25:41.774Z,5.97
2018-02-01T13:26:41.520Z,5.96
2018-02-01T13:27:40.732Z,5.95